sensor_id;sensor_type;location;lat;lon;timestamp;P1;durP1;ratioP1;P2;durP2;ratioP2
4915;SDS011;70796;52.406;13.230;2023-08-21T00:00:41;12.60;;;11.10;;
4915;SDS011;70796;52.406;13.230;2023-08-21T00:03:07;14.30;;;10.63;;
4915;SDS011;70796;52.406;13.230;2023-08-21T00:05:34;15.40;;;11.50;;
4915;SDS011;70796;52.406;13.230;2023-08-21T00:08:00;15.03;;;11.57;;
4915;SDS011;70796;52.406;13.230;2023-08-21T00:10:27;21.80;;;11.53;;
4915;SDS011;70796;52.406;13.230;2023-08-21T00:12:53;15.27;;;10.43;;
4915;SDS011;70796;52.406;13.230;2023-08-21T00:15:20;16.80;;;11.10;;
4915;SDS011;70796;52.406;13.230;2023-08-21T00:17:46;18.77;;;11.83;;
4915;SDS011;70796;52.406;13.230;2023-08-21T00:20:13;15.20;;;12.00;;
4915;SDS011;70796;52.406;13.230;2023-08-21T00:22:39;13.20;;;11.73;;
4915;SDS011;70796;52.406;13.230;2023-08-21T00:25:06;15.63;;;12.20;;
4915;SDS011;70796;52.406;13.230;2023-08-21T00:27:32;14.43;;;10.57;;
4915;SDS011;70796;52.406;13.230;2023-08-21T00:30:00;17.53;;;12.20;;
4915;SDS011;70796;52.406;13.230;2023-08-21T00:32:27;16.27;;;13.07;;
4915;SDS011;70796;52.406;13.230;2023-08-21T00:34:53;15.50;;;12.03;;
4915;SDS011;70796;52.406;13.230;2023-08-21T00:37:19;16.83;;;12.87;;
4915;SDS011;70796;52.406;13.230;2023-08-21T00:39:46;19.30;;;12.53;;
4915;SDS011;70796;52.406;13.230;2023-08-21T00:42:12;15.90;;;12.73;;
4915;SDS011;70796;52.406;13.230;2023-08-21T00:44:41;16.93;;;12.63;;
4915;SDS011;70796;52.406;13.230;2023-08-21T00:47:09;20.03;;;14.70;;
4915;SDS011;70796;52.406;13.230;2023-08-21T00:49:35;17.17;;;12.97;;
4915;SDS011;70796;52.406;13.230;2023-08-21T00:52:02;19.37;;;13.50;;
4915;SDS011;70796;52.406;13.230;2023-08-21T00:54:30;17.37;;;12.60;;
4915;SDS011;70796;52.406;13.230;2023-08-21T00:56:56;18.27;;;12.37;;
4915;SDS011;70796;52.406;13.230;2023-08-21T00:59:22;20.77;;;14.10;;
4915;SDS011;70796;52.406;13.230;2023-08-21T01:01:49;19.03;;;13.13;;
4915;SDS011;70796;52.406;13.230;2023-08-21T01:04:15;18.00;;;13.13;;
4915;SDS011;70796;52.406;13.230;2023-08-21T01:06:42;20.43;;;13.13;;
4915;SDS011;70796;52.406;13.230;2023-08-21T01:16:47;16.67;;;11.67;;
4915;SDS011;70796;52.406;13.230;2023-08-21T01:19:31;16.17;;;13.07;;
4915;SDS011;70796;52.406;13.230;2023-08-21T01:22:01;21.00;;;13.33;;
4915;SDS011;70796;52.406;13.230;2023-08-21T01:24:28;15.90;;;12.30;;
4915;SDS011;70796;52.406;13.230;2023-08-21T01:26:54;17.87;;;12.20;;
4915;SDS011;70796;52.406;13.230;2023-08-21T01:29:21;17.07;;;13.10;;
4915;SDS011;70796;52.406;13.230;2023-08-21T01:31:50;20.87;;;13.03;;
4915;SDS011;70796;52.406;13.230;2023-08-21T01:34:20;16.00;;;13.57;;
4915;SDS011;70796;52.406;13.230;2023-08-21T01:36:47;23.33;;;13.40;;
4915;SDS011;70796;52.406;13.230;2023-08-21T01:39:14;15.93;;;12.57;;
4915;SDS011;70796;52.406;13.230;2023-08-21T01:41:41;17.60;;;12.37;;
4915;SDS011;70796;52.406;13.230;2023-08-21T01:44:08;19.47;;;13.10;;
4915;SDS011;70796;52.406;13.230;2023-08-21T01:46:34;19.50;;;13.40;;
4915;SDS011;70796;52.406;13.230;2023-08-21T01:49:01;19.97;;;13.00;;
4915;SDS011;70796;52.406;13.230;2023-08-21T01:51:27;15.97;;;12.10;;
4915;SDS011;70796;52.406;13.230;2023-08-21T01:53:53;13.63;;;11.70;;
4915;SDS011;70796;52.406;13.230;2023-08-21T01:56:20;15.10;;;12.00;;
4915;SDS011;70796;52.406;13.230;2023-08-21T01:58:46;14.60;;;11.50;;
4915;SDS011;70796;52.406;13.230;2023-08-21T02:01:13;19.10;;;12.00;;
4915;SDS011;70796;52.406;13.230;2023-08-21T02:03:42;17.43;;;12.10;;
4915;SDS011;70796;52.406;13.230;2023-08-21T02:06:10;17.53;;;11.93;;
4915;SDS011;70796;52.406;13.230;2023-08-21T02:08:38;15.57;;;11.43;;
4915;SDS011;70796;52.406;13.230;2023-08-21T02:11:04;14.33;;;12.77;;
4915;SDS011;70796;52.406;13.230;2023-08-21T02:13:30;18.00;;;11.77;;
4915;SDS011;70796;52.406;13.230;2023-08-21T02:15:59;15.00;;;11.87;;
4915;SDS011;70796;52.406;13.230;2023-08-21T02:18:26;18.07;;;12.53;;
4915;SDS011;70796;52.406;13.230;2023-08-21T02:20:52;13.87;;;12.40;;
4915;SDS011;70796;52.406;13.230;2023-08-21T02:23:19;15.70;;;11.30;;
4915;SDS011;70796;52.406;13.230;2023-08-21T02:25:45;13.70;;;10.53;;
4915;SDS011;70796;52.406;13.230;2023-08-21T02:28:12;13.70;;;10.73;;
4915;SDS011;70796;52.406;13.230;2023-08-21T02:30:40;14.80;;;11.87;;
4915;SDS011;70796;52.406;13.230;2023-08-21T02:33:07;13.90;;;11.10;;
4915;SDS011;70796;52.406;13.230;2023-08-21T02:35:34;18.40;;;11.70;;
4915;SDS011;70796;52.406;13.230;2023-08-21T02:38:01;16.33;;;11.80;;
4915;SDS011;70796;52.406;13.230;2023-08-21T02:40:27;16.10;;;10.37;;
4915;SDS011;70796;52.406;13.230;2023-08-21T02:42:54;17.50;;;11.60;;
4915;SDS011;70796;52.406;13.230;2023-08-21T02:45:22;20.07;;;11.40;;
4915;SDS011;70796;52.406;13.230;2023-08-21T02:47:49;13.53;;;11.13;;
4915;SDS011;70796;52.406;13.230;2023-08-21T02:50:18;15.97;;;12.00;;
4915;SDS011;70796;52.406;13.230;2023-08-21T02:52:44;16.43;;;11.97;;
4915;SDS011;70796;52.406;13.230;2023-08-21T02:55:11;13.20;;;11.50;;
4915;SDS011;70796;52.406;13.230;2023-08-21T02:57:37;16.00;;;11.20;;
4915;SDS011;70796;52.406;13.230;2023-08-21T03:00:04;22.53;;;11.47;;
4915;SDS011;70796;52.406;13.230;2023-08-21T03:02:30;14.40;;;11.13;;
4915;SDS011;70796;52.406;13.230;2023-08-21T03:04:58;15.13;;;11.87;;
4915;SDS011;70796;52.406;13.230;2023-08-21T03:07:24;17.90;;;11.10;;
4915;SDS011;70796;52.406;13.230;2023-08-21T03:09:52;12.87;;;10.80;;
4915;SDS011;70796;52.406;13.230;2023-08-21T03:12:19;18.83;;;11.57;;
4915;SDS011;70796;52.406;13.230;2023-08-21T03:14:47;14.93;;;10.93;;
4915;SDS011;70796;52.406;13.230;2023-08-21T03:17:13;13.13;;;10.50;;
4915;SDS011;70796;52.406;13.230;2023-08-21T03:19:40;16.03;;;11.93;;
4915;SDS011;70796;52.406;13.230;2023-08-21T03:22:06;15.30;;;11.67;;
4915;SDS011;70796;52.406;13.230;2023-08-21T03:24:33;13.60;;;10.70;;
4915;SDS011;70796;52.406;13.230;2023-08-21T03:26:59;12.70;;;10.20;;
4915;SDS011;70796;52.406;13.230;2023-08-21T03:29:25;17.33;;;11.10;;
4915;SDS011;70796;52.406;13.230;2023-08-21T03:31:52;18.07;;;10.80;;
4915;SDS011;70796;52.406;13.230;2023-08-21T03:34:20;14.33;;;11.20;;
4915;SDS011;70796;52.406;13.230;2023-08-21T03:36:48;13.30;;;10.67;;
4915;SDS011;70796;52.406;13.230;2023-08-21T03:39:14;15.50;;;10.90;;
4915;SDS011;70796;52.406;13.230;2023-08-21T03:41:43;15.97;;;11.10;;
4915;SDS011;70796;52.406;13.230;2023-08-21T03:44:10;13.00;;;10.60;;
4915;SDS011;70796;52.406;13.230;2023-08-21T03:46:38;18.03;;;11.83;;
4915;SDS011;70796;52.406;13.230;2023-08-21T03:49:05;17.03;;;11.53;;
4915;SDS011;70796;52.406;13.230;2023-08-21T03:51:33;14.00;;;10.57;;
4915;SDS011;70796;52.406;13.230;2023-08-21T03:53:59;14.77;;;11.23;;
4915;SDS011;70796;52.406;13.230;2023-08-21T03:56:25;18.50;;;10.97;;
4915;SDS011;70796;52.406;13.230;2023-08-21T03:58:53;13.23;;;10.40;;
4915;SDS011;70796;52.406;13.230;2023-08-21T04:01:19;16.50;;;11.70;;
4915;SDS011;70796;52.406;13.230;2023-08-21T04:03:45;18.13;;;11.77;;
4915;SDS011;70796;52.406;13.230;2023-08-21T04:06:12;14.13;;;11.40;;
4915;SDS011;70796;52.406;13.230;2023-08-21T04:08:39;17.47;;;12.50;;
4915;SDS011;70796;52.406;13.230;2023-08-21T04:11:06;13.27;;;11.80;;
4915;SDS011;70796;52.406;13.230;2023-08-21T04:13:33;17.43;;;12.30;;
4915;SDS011;70796;52.406;13.230;2023-08-21T04:15:59;18.40;;;13.20;;
4915;SDS011;70796;52.406;13.230;2023-08-21T04:18:27;22.57;;;14.57;;
4915;SDS011;70796;52.406;13.230;2023-08-21T04:21:07;16.07;;;12.27;;
4915;SDS011;70796;52.406;13.230;2023-08-21T04:23:34;18.37;;;13.37;;
4915;SDS011;70796;52.406;13.230;2023-08-21T04:26:00;17.60;;;13.00;;
4915;SDS011;70796;52.406;13.230;2023-08-21T04:28:29;17.03;;;12.07;;
4915;SDS011;70796;52.406;13.230;2023-08-21T04:30:56;19.80;;;13.47;;
4915;SDS011;70796;52.406;13.230;2023-08-21T04:33:28;18.10;;;13.37;;
4915;SDS011;70796;52.406;13.230;2023-08-21T04:35:54;13.83;;;11.10;;
4915;SDS011;70796;52.406;13.230;2023-08-21T04:38:21;13.63;;;11.50;;
4915;SDS011;70796;52.406;13.230;2023-08-21T04:40:49;19.13;;;12.00;;
4915;SDS011;70796;52.406;13.230;2023-08-21T04:43:15;16.80;;;12.10;;
4915;SDS011;70796;52.406;13.230;2023-08-21T04:45:48;14.77;;;11.27;;
4915;SDS011;70796;52.406;13.230;2023-08-21T04:48:16;12.93;;;9.97;;
4915;SDS011;70796;52.406;13.230;2023-08-21T04:50:45;13.80;;;10.80;;
4915;SDS011;70796;52.406;13.230;2023-08-21T04:53:13;15.27;;;12.50;;
4915;SDS011;70796;52.406;13.230;2023-08-21T04:55:42;12.73;;;9.60;;
4915;SDS011;70796;52.406;13.230;2023-08-21T04:58:09;12.00;;;9.70;;
4915;SDS011;70796;52.406;13.230;2023-08-21T05:00:35;13.00;;;10.27;;
4915;SDS011;70796;52.406;13.230;2023-08-21T05:03:02;15.27;;;10.67;;
4915;SDS011;70796;52.406;13.230;2023-08-21T05:05:29;15.10;;;11.00;;
4915;SDS011;70796;52.406;13.230;2023-08-21T05:07:55;14.10;;;10.57;;
4915;SDS011;70796;52.406;13.230;2023-08-21T05:10:22;14.40;;;10.70;;
4915;SDS011;70796;52.406;13.230;2023-08-21T05:12:49;22.73;;;10.87;;
4915;SDS011;70796;52.406;13.230;2023-08-21T05:15:16;18.97;;;10.07;;
4915;SDS011;70796;52.406;13.230;2023-08-21T05:17:44;13.77;;;9.50;;
4915;SDS011;70796;52.406;13.230;2023-08-21T05:20:12;12.80;;;8.93;;
4915;SDS011;70796;52.406;13.230;2023-08-21T05:22:42;13.53;;;9.30;;
4915;SDS011;70796;52.406;13.230;2023-08-21T05:25:10;11.17;;;8.80;;
4915;SDS011;70796;52.406;13.230;2023-08-21T05:27:36;11.10;;;9.20;;
4915;SDS011;70796;52.406;13.230;2023-08-21T05:30:04;11.20;;;8.27;;
4915;SDS011;70796;52.406;13.230;2023-08-21T05:32:31;9.73;;;8.43;;
4915;SDS011;70796;52.406;13.230;2023-08-21T05:34:58;13.10;;;8.18;;
4915;SDS011;70796;52.406;13.230;2023-08-21T05:37:25;10.23;;;8.27;;
4915;SDS011;70796;52.406;13.230;2023-08-21T05:39:54;11.17;;;8.43;;
4915;SDS011;70796;52.406;13.230;2023-08-21T05:42:21;11.57;;;9.17;;
4915;SDS011;70796;52.406;13.230;2023-08-21T05:44:49;11.13;;;8.33;;
4915;SDS011;70796;52.406;13.230;2023-08-21T05:47:15;10.37;;;8.53;;
4915;SDS011;70796;52.406;13.230;2023-08-21T05:49:42;9.43;;;8.40;;
4915;SDS011;70796;52.406;13.230;2023-08-21T05:52:10;9.70;;;8.30;;
4915;SDS011;70796;52.406;13.230;2023-08-21T05:54:36;8.97;;;8.07;;
4915;SDS011;70796;52.406;13.230;2023-08-21T05:57:05;9.00;;;7.90;;
4915;SDS011;70796;52.406;13.230;2023-08-21T05:59:32;9.70;;;7.90;;
4915;SDS011;70796;52.406;13.230;2023-08-21T06:02:07;10.80;;;8.00;;
4915;SDS011;70796;52.406;13.230;2023-08-21T06:04:34;9.43;;;8.10;;
4915;SDS011;70796;52.406;13.230;2023-08-21T06:07:01;10.50;;;8.60;;
4915;SDS011;70796;52.406;13.230;2023-08-21T06:09:28;15.33;;;8.57;;
4915;SDS011;70796;52.406;13.230;2023-08-21T06:11:56;10.97;;;8.20;;
4915;SDS011;70796;52.406;13.230;2023-08-21T06:14:22;14.30;;;7.70;;
4915;SDS011;70796;52.406;13.230;2023-08-21T06:17:01;8.60;;;7.70;;
4915;SDS011;70796;52.406;13.230;2023-08-21T06:19:28;11.20;;;8.13;;
4915;SDS011;70796;52.406;13.230;2023-08-21T06:21:57;9.10;;;7.40;;
4915;SDS011;70796;52.406;13.230;2023-08-21T06:24:24;13.83;;;8.23;;
4915;SDS011;70796;52.406;13.230;2023-08-21T06:26:54;14.37;;;8.40;;
4915;SDS011;70796;52.406;13.230;2023-08-21T06:29:21;13.93;;;8.47;;
4915;SDS011;70796;52.406;13.230;2023-08-21T06:31:47;12.87;;;7.87;;
4915;SDS011;70796;52.406;13.230;2023-08-21T06:34:14;11.70;;;8.30;;
4915;SDS011;70796;52.406;13.230;2023-08-21T06:36:40;15.53;;;9.07;;
4915;SDS011;70796;52.406;13.230;2023-08-21T06:39:07;9.37;;;7.73;;
4915;SDS011;70796;52.406;13.230;2023-08-21T06:41:33;12.70;;;7.73;;
4915;SDS011;70796;52.406;13.230;2023-08-21T06:43:59;8.63;;;7.17;;
4915;SDS011;70796;52.406;13.230;2023-08-21T06:46:27;10.53;;;7.63;;
4915;SDS011;70796;52.406;13.230;2023-08-21T06:48:54;10.83;;;7.07;;
4915;SDS011;70796;52.406;13.230;2023-08-21T06:51:20;13.20;;;6.63;;
4915;SDS011;70796;52.406;13.230;2023-08-21T06:53:47;7.67;;;6.13;;
4915;SDS011;70796;52.406;13.230;2023-08-21T06:56:13;14.93;;;6.67;;
4915;SDS011;70796;52.406;13.230;2023-08-21T06:58:39;8.10;;;5.60;;
4915;SDS011;70796;52.406;13.230;2023-08-21T07:01:06;8.43;;;5.80;;
4915;SDS011;70796;52.406;13.230;2023-08-21T07:03:32;13.47;;;6.93;;
4915;SDS011;70796;52.406;13.230;2023-08-21T07:05:59;8.97;;;6.83;;
4915;SDS011;70796;52.406;13.230;2023-08-21T07:08:27;9.93;;;6.40;;
4915;SDS011;70796;52.406;13.230;2023-08-21T07:10:53;7.60;;;5.70;;
4915;SDS011;70796;52.406;13.230;2023-08-21T07:13:20;9.43;;;5.60;;
4915;SDS011;70796;52.406;13.230;2023-08-21T07:15:46;8.70;;;5.93;;
4915;SDS011;70796;52.406;13.230;2023-08-21T07:18:13;8.60;;;5.50;;
4915;SDS011;70796;52.406;13.230;2023-08-21T07:20:40;6.40;;;4.77;;
4915;SDS011;70796;52.406;13.230;2023-08-21T07:23:06;5.63;;;4.83;;
4915;SDS011;70796;52.406;13.230;2023-08-21T07:25:33;6.73;;;4.93;;
4915;SDS011;70796;52.406;13.230;2023-08-21T07:27:59;5.87;;;4.20;;
4915;SDS011;70796;52.406;13.230;2023-08-21T07:30:25;6.77;;;5.03;;
4915;SDS011;70796;52.406;13.230;2023-08-21T07:32:52;6.80;;;4.80;;
4915;SDS011;70796;52.406;13.230;2023-08-21T07:35:19;7.50;;;4.63;;
4915;SDS011;70796;52.406;13.230;2023-08-21T07:37:46;9.83;;;4.40;;
4915;SDS011;70796;52.406;13.230;2023-08-21T07:40:13;8.47;;;4.50;;
4915;SDS011;70796;52.406;13.230;2023-08-21T07:42:40;8.30;;;4.47;;
4915;SDS011;70796;52.406;13.230;2023-08-21T07:45:06;9.17;;;4.33;;
4915;SDS011;70796;52.406;13.230;2023-08-21T07:47:33;15.63;;;4.37;;
4915;SDS011;70796;52.406;13.230;2023-08-21T07:50:02;6.20;;;4.00;;
4915;SDS011;70796;52.406;13.230;2023-08-21T07:52:29;7.50;;;4.60;;
4915;SDS011;70796;52.406;13.230;2023-08-21T07:54:55;3.80;;;3.13;;
4915;SDS011;70796;52.406;13.230;2023-08-21T07:57:22;7.13;;;3.10;;
4915;SDS011;70796;52.406;13.230;2023-08-21T07:59:48;7.78;;;3.80;;
4915;SDS011;70796;52.406;13.230;2023-08-21T08:02:15;9.63;;;4.13;;
4915;SDS011;70796;52.406;13.230;2023-08-21T08:04:41;7.30;;;3.60;;
4915;SDS011;70796;52.406;13.230;2023-08-21T08:07:09;4.90;;;3.30;;
4915;SDS011;70796;52.406;13.230;2023-08-21T08:09:35;11.87;;;3.70;;
4915;SDS011;70796;52.406;13.230;2023-08-21T08:12:02;8.97;;;3.40;;
4915;SDS011;70796;52.406;13.230;2023-08-21T08:14:28;7.00;;;3.60;;
4915;SDS011;70796;52.406;13.230;2023-08-21T08:16:55;6.57;;;2.77;;
4915;SDS011;70796;52.406;13.230;2023-08-21T08:19:21;11.83;;;3.40;;
4915;SDS011;70796;52.406;13.230;2023-08-21T08:21:47;7.67;;;2.80;;
4915;SDS011;70796;52.406;13.230;2023-08-21T08:24:14;4.80;;;2.73;;
4915;SDS011;70796;52.406;13.230;2023-08-21T08:26:40;6.77;;;2.77;;
4915;SDS011;70796;52.406;13.230;2023-08-21T08:29:09;6.63;;;2.83;;
4915;SDS011;70796;52.406;13.230;2023-08-21T08:31:35;7.07;;;3.00;;
4915;SDS011;70796;52.406;13.230;2023-08-21T08:34:02;7.60;;;3.17;;
4915;SDS011;70796;52.406;13.230;2023-08-21T08:36:28;4.83;;;2.53;;
4915;SDS011;70796;52.406;13.230;2023-08-21T08:38:54;7.93;;;3.00;;
4915;SDS011;70796;52.406;13.230;2023-08-21T08:43:51;8.53;;;2.80;;
4915;SDS011;70796;52.406;13.230;2023-08-21T08:46:19;7.13;;;2.70;;
4915;SDS011;70796;52.406;13.230;2023-08-21T08:48:46;4.47;;;2.57;;
4915;SDS011;70796;52.406;13.230;2023-08-21T08:51:12;4.57;;;2.50;;
4915;SDS011;70796;52.406;13.230;2023-08-21T08:53:39;6.53;;;2.07;;
4915;SDS011;70796;52.406;13.230;2023-08-21T08:56:05;8.00;;;2.63;;
4915;SDS011;70796;52.406;13.230;2023-08-21T08:58:32;4.90;;;2.00;;
4915;SDS011;70796;52.406;13.230;2023-08-21T09:00:59;3.70;;;2.10;;
4915;SDS011;70796;52.406;13.230;2023-08-21T09:03:25;4.03;;;2.27;;
4915;SDS011;70796;52.406;13.230;2023-08-21T09:05:52;3.57;;;2.20;;
4915;SDS011;70796;52.406;13.230;2023-08-21T09:08:19;6.67;;;2.20;;
4915;SDS011;70796;52.406;13.230;2023-08-21T09:10:45;12.57;;;3.03;;
4915;SDS011;70796;52.406;13.230;2023-08-21T09:13:13;2.90;;;2.00;;
4915;SDS011;70796;52.406;13.230;2023-08-21T09:15:41;4.57;;;1.40;;
4915;SDS011;70796;52.406;13.230;2023-08-21T09:18:08;4.90;;;1.60;;
4915;SDS011;70796;52.406;13.230;2023-08-21T09:20:35;3.20;;;1.73;;
4915;SDS011;70796;52.406;13.230;2023-08-21T09:23:02;2.90;;;1.10;;
4915;SDS011;70796;52.406;13.230;2023-08-21T09:25:33;3.13;;;1.30;;
4915;SDS011;70796;52.406;13.230;2023-08-21T09:28:01;5.17;;;1.80;;
4915;SDS011;70796;52.406;13.230;2023-08-21T09:30:30;1.93;;;1.13;;
4915;SDS011;70796;52.406;13.230;2023-08-21T09:33:09;5.80;;;1.90;;
4915;SDS011;70796;52.406;13.230;2023-08-21T09:35:35;4.20;;;1.00;;
4915;SDS011;70796;52.406;13.230;2023-08-21T09:38:02;4.07;;;1.20;;
4915;SDS011;70796;52.406;13.230;2023-08-21T09:40:29;3.00;;;1.20;;
4915;SDS011;70796;52.406;13.230;2023-08-21T09:42:55;2.60;;;1.27;;
4915;SDS011;70796;52.406;13.230;2023-08-21T09:45:22;7.13;;;1.20;;
4915;SDS011;70796;52.406;13.230;2023-08-21T09:47:49;3.60;;;1.20;;
4915;SDS011;70796;52.406;13.230;2023-08-21T09:50:16;2.67;;;1.23;;
4915;SDS011;70796;52.406;13.230;2023-08-21T09:52:44;5.90;;;1.73;;
4915;SDS011;70796;52.406;13.230;2023-08-21T09:55:30;2.30;;;1.00;;
4915;SDS011;70796;52.406;13.230;2023-08-21T09:58:00;6.73;;;1.60;;
4915;SDS011;70796;52.406;13.230;2023-08-21T10:00:28;5.50;;;1.30;;
4915;SDS011;70796;52.406;13.230;2023-08-21T10:02:55;2.67;;;1.10;;
4915;SDS011;70796;52.406;13.230;2023-08-21T10:05:25;2.50;;;1.30;;
4915;SDS011;70796;52.406;13.230;2023-08-21T10:07:52;3.37;;;1.30;;
4915;SDS011;70796;52.406;13.230;2023-08-21T10:10:21;2.70;;;1.33;;
4915;SDS011;70796;52.406;13.230;2023-08-21T10:12:48;5.37;;;1.30;;
4915;SDS011;70796;52.406;13.230;2023-08-21T10:15:15;4.37;;;1.43;;
4915;SDS011;70796;52.406;13.230;2023-08-21T10:17:42;3.10;;;1.33;;
4915;SDS011;70796;52.406;13.230;2023-08-21T10:20:09;4.10;;;1.43;;
4915;SDS011;70796;52.406;13.230;2023-08-21T10:22:38;4.87;;;1.60;;
4915;SDS011;70796;52.406;13.230;2023-08-21T10:25:13;4.80;;;1.20;;
4915;SDS011;70796;52.406;13.230;2023-08-21T10:27:40;7.10;;;1.40;;
4915;SDS011;70796;52.406;13.230;2023-08-21T10:30:41;3.77;;;1.40;;
4915;SDS011;70796;52.406;13.230;2023-08-21T10:33:00;2.67;;;1.53;;
4915;SDS011;70796;52.406;13.230;2023-08-21T10:35:30;3.97;;;1.57;;
4915;SDS011;70796;52.406;13.230;2023-08-21T10:38:06;2.50;;;1.30;;
4915;SDS011;70796;52.406;13.230;2023-08-21T10:40:34;7.13;;;1.43;;
4915;SDS011;70796;52.406;13.230;2023-08-21T10:43:00;4.07;;;1.30;;
4915;SDS011;70796;52.406;13.230;2023-08-21T10:45:27;2.10;;;1.20;;
4915;SDS011;70796;52.406;13.230;2023-08-21T10:47:56;2.70;;;1.40;;
4915;SDS011;70796;52.406;13.230;2023-08-21T10:50:22;3.30;;;1.20;;
4915;SDS011;70796;52.406;13.230;2023-08-21T10:52:49;3.70;;;1.30;;
4915;SDS011;70796;52.406;13.230;2023-08-21T10:55:17;3.57;;;1.30;;
4915;SDS011;70796;52.406;13.230;2023-08-21T10:57:49;2.53;;;1.30;;
4915;SDS011;70796;52.406;13.230;2023-08-21T11:00:16;4.00;;;1.63;;
4915;SDS011;70796;52.406;13.230;2023-08-21T11:02:47;4.90;;;1.53;;
4915;SDS011;70796;52.406;13.230;2023-08-21T11:05:15;1.73;;;0.90;;
4915;SDS011;70796;52.406;13.230;2023-08-21T11:07:42;2.80;;;1.50;;
4915;SDS011;70796;52.406;13.230;2023-08-21T11:10:11;4.30;;;1.77;;
4915;SDS011;70796;52.406;13.230;2023-08-21T11:12:38;2.83;;;1.47;;
4915;SDS011;70796;52.406;13.230;2023-08-21T11:15:05;5.57;;;1.70;;
4915;SDS011;70796;52.406;13.230;2023-08-21T11:17:33;2.90;;;1.20;;
4915;SDS011;70796;52.406;13.230;2023-08-21T11:20:00;4.07;;;1.30;;
4915;SDS011;70796;52.406;13.230;2023-08-21T11:22:31;4.13;;;1.57;;
4915;SDS011;70796;52.406;13.230;2023-08-21T11:24:58;4.00;;;1.70;;
4915;SDS011;70796;52.406;13.230;2023-08-21T11:27:24;3.43;;;1.30;;
4915;SDS011;70796;52.406;13.230;2023-08-21T11:29:51;9.63;;;1.40;;
4915;SDS011;70796;52.406;13.230;2023-08-21T11:32:22;2.67;;;1.30;;
4915;SDS011;70796;52.406;13.230;2023-08-21T11:34:55;3.83;;;1.40;;
4915;SDS011;70796;52.406;13.230;2023-08-21T11:37:22;2.93;;;1.03;;
4915;SDS011;70796;52.406;13.230;2023-08-21T11:39:50;3.27;;;1.33;;
4915;SDS011;70796;52.406;13.230;2023-08-21T11:42:18;1.60;;;1.07;;
4915;SDS011;70796;52.406;13.230;2023-08-21T11:44:52;3.40;;;1.37;;
4915;SDS011;70796;52.406;13.230;2023-08-21T11:47:21;2.70;;;1.20;;
4915;SDS011;70796;52.406;13.230;2023-08-21T11:49:47;5.30;;;1.30;;
4915;SDS011;70796;52.406;13.230;2023-08-21T11:52:19;3.97;;;1.40;;
4915;SDS011;70796;52.406;13.230;2023-08-21T11:54:49;4.37;;;1.50;;
4915;SDS011;70796;52.406;13.230;2023-08-21T11:57:16;4.83;;;1.33;;
4915;SDS011;70796;52.406;13.230;2023-08-21T11:59:43;1.57;;;0.93;;
4915;SDS011;70796;52.406;13.230;2023-08-21T12:02:16;1.97;;;1.10;;
4915;SDS011;70796;52.406;13.230;2023-08-21T12:04:44;4.10;;;1.20;;
4915;SDS011;70796;52.406;13.230;2023-08-21T12:07:14;5.50;;;1.50;;
4915;SDS011;70796;52.406;13.230;2023-08-21T12:09:45;1.87;;;1.27;;
4915;SDS011;70796;52.406;13.230;2023-08-21T12:12:12;11.90;;;1.70;;
4915;SDS011;70796;52.406;13.230;2023-08-21T12:14:38;2.33;;;1.10;;
4915;SDS011;70796;52.406;13.230;2023-08-21T12:17:05;3.83;;;1.40;;
4915;SDS011;70796;52.406;13.230;2023-08-21T12:19:32;8.93;;;1.20;;
4915;SDS011;70796;52.406;13.230;2023-08-21T12:21:59;3.20;;;1.50;;
4915;SDS011;70796;52.406;13.230;2023-08-21T12:24:27;2.80;;;1.10;;
4915;SDS011;70796;52.406;13.230;2023-08-21T12:26:55;3.83;;;1.33;;
4915;SDS011;70796;52.406;13.230;2023-08-21T12:29:21;5.13;;;1.77;;
4915;SDS011;70796;52.406;13.230;2023-08-21T12:31:48;3.67;;;1.53;;
4915;SDS011;70796;52.406;13.230;2023-08-21T12:34:14;2.70;;;1.10;;
4915;SDS011;70796;52.406;13.230;2023-08-21T12:36:41;4.20;;;1.27;;
4915;SDS011;70796;52.406;13.230;2023-08-21T12:39:08;3.27;;;1.30;;
4915;SDS011;70796;52.406;13.230;2023-08-21T12:41:35;3.00;;;1.40;;
4915;SDS011;70796;52.406;13.230;2023-08-21T12:44:02;7.63;;;1.73;;
4915;SDS011;70796;52.406;13.230;2023-08-21T12:46:29;4.07;;;1.40;;
4915;SDS011;70796;52.406;13.230;2023-08-21T12:48:56;4.60;;;1.30;;
4915;SDS011;70796;52.406;13.230;2023-08-21T12:51:23;6.13;;;1.40;;
4915;SDS011;70796;52.406;13.230;2023-08-21T12:53:50;3.10;;;1.47;;
4915;SDS011;70796;52.406;13.230;2023-08-21T12:56:16;4.93;;;1.70;;
4915;SDS011;70796;52.406;13.230;2023-08-21T12:58:43;6.00;;;1.73;;
4915;SDS011;70796;52.406;13.230;2023-08-21T13:01:09;5.63;;;1.50;;
4915;SDS011;70796;52.406;13.230;2023-08-21T13:03:36;10.20;;;1.27;;
4915;SDS011;70796;52.406;13.230;2023-08-21T13:06:02;2.20;;;1.17;;
4915;SDS011;70796;52.406;13.230;2023-08-21T13:08:29;5.33;;;1.30;;
4915;SDS011;70796;52.406;13.230;2023-08-21T13:10:55;3.87;;;1.93;;
4915;SDS011;70796;52.406;13.230;2023-08-21T13:13:23;2.60;;;1.40;;
4915;SDS011;70796;52.406;13.230;2023-08-21T13:15:54;2.20;;;1.40;;
4915;SDS011;70796;52.406;13.230;2023-08-21T13:18:21;4.20;;;1.07;;
4915;SDS011;70796;52.406;13.230;2023-08-21T13:20:47;6.77;;;1.43;;
4915;SDS011;70796;52.406;13.230;2023-08-21T13:23:14;4.50;;;1.20;;
4915;SDS011;70796;52.406;13.230;2023-08-21T13:25:40;3.00;;;1.10;;
4915;SDS011;70796;52.406;13.230;2023-08-21T13:28:07;3.00;;;1.30;;
4915;SDS011;70796;52.406;13.230;2023-08-21T13:30:36;2.77;;;1.30;;
4915;SDS011;70796;52.406;13.230;2023-08-21T13:33:03;4.73;;;1.50;;
4915;SDS011;70796;52.406;13.230;2023-08-21T13:35:31;2.10;;;1.37;;
4915;SDS011;70796;52.406;13.230;2023-08-21T13:37:57;4.20;;;1.40;;
4915;SDS011;70796;52.406;13.230;2023-08-21T13:40:24;2.10;;;1.20;;
4915;SDS011;70796;52.406;13.230;2023-08-21T13:42:50;2.53;;;1.10;;
4915;SDS011;70796;52.406;13.230;2023-08-21T13:45:19;5.57;;;1.47;;
4915;SDS011;70796;52.406;13.230;2023-08-21T13:47:46;2.13;;;1.27;;
4915;SDS011;70796;52.406;13.230;2023-08-21T13:50:16;4.93;;;1.80;;
4915;SDS011;70796;52.406;13.230;2023-08-21T13:55:34;3.67;;;1.10;;
4915;SDS011;70796;52.406;13.230;2023-08-21T13:58:00;4.37;;;1.37;;
4915;SDS011;70796;52.406;13.230;2023-08-21T14:00:27;2.50;;;1.37;;
4915;SDS011;70796;52.406;13.230;2023-08-21T14:02:54;5.00;;;1.30;;
4915;SDS011;70796;52.406;13.230;2023-08-21T14:05:20;5.33;;;1.60;;
4915;SDS011;70796;52.406;13.230;2023-08-21T14:07:47;4.27;;;1.63;;
4915;SDS011;70796;52.406;13.230;2023-08-21T14:10:13;2.80;;;1.37;;
4915;SDS011;70796;52.406;13.230;2023-08-21T14:12:40;3.10;;;1.20;;
4915;SDS011;70796;52.406;13.230;2023-08-21T14:15:08;2.00;;;1.10;;
4915;SDS011;70796;52.406;13.230;2023-08-21T14:17:34;3.00;;;1.20;;
4915;SDS011;70796;52.406;13.230;2023-08-21T14:20:01;4.80;;;1.03;;
4915;SDS011;70796;52.406;13.230;2023-08-21T14:22:29;2.40;;;1.10;;
4915;SDS011;70796;52.406;13.230;2023-08-21T14:24:55;4.80;;;1.77;;
4915;SDS011;70796;52.406;13.230;2023-08-21T14:27:21;4.17;;;1.47;;
4915;SDS011;70796;52.406;13.230;2023-08-21T14:29:48;3.87;;;1.37;;
4915;SDS011;70796;52.406;13.230;2023-08-21T14:32:14;2.47;;;1.17;;
4915;SDS011;70796;52.406;13.230;2023-08-21T14:34:40;8.03;;;1.40;;
4915;SDS011;70796;52.406;13.230;2023-08-21T14:37:07;3.53;;;1.40;;
4915;SDS011;70796;52.406;13.230;2023-08-21T14:39:33;4.40;;;1.33;;
4915;SDS011;70796;52.406;13.230;2023-08-21T14:42:00;2.60;;;1.53;;
4915;SDS011;70796;52.406;13.230;2023-08-21T14:44:27;2.90;;;1.50;;
4915;SDS011;70796;52.406;13.230;2023-08-21T14:46:54;2.50;;;1.20;;
4915;SDS011;70796;52.406;13.230;2023-08-21T14:49:24;2.33;;;1.07;;
4915;SDS011;70796;52.406;13.230;2023-08-21T14:51:51;4.80;;;1.23;;